createdAt,value
2024-03-12T00:00:59.139Z,178.26
2024-03-12T00:01:59.215Z,177.73
2024-03-12T00:02:59.157Z,178.09
2024-03-12T00:03:59.446Z,177.65
2024-03-12T00:04:59.222Z,177.33
2024-03-12T00:05:59.262Z,178.20
2024-03-12T00:06:59.306Z,178.08
2024-03-12T00:07:59.328Z,178.27
2024-03-12T00:08:59.358Z,177.94
2024-03-12T00:09:59.476Z,177.98
2024-03-12T00:10:59.437Z,178.65
2024-03-12T00:11:59.481Z,177.80
2024-03-12T00:12:59.516Z,178.33
2024-03-12T00:13:59.521Z,178.10
2024-03-12T00:14:59.561Z,178.23
2024-03-12T00:15:59.677Z,178.42
2024-03-12T00:16:59.643Z,178.38
2024-03-12T00:17:59.694Z,178.54
2024-03-12T00:18:59.808Z,177.86
2024-03-12T00:19:59.725Z,178.34
2024-03-12T00:20:59.769Z,178.34
2024-03-12T00:21:59.854Z,178.79
2024-03-12T00:22:59.908Z,178.35
2024-03-12T00:24:00.300Z,177.66
2024-03-12T00:24:59.966Z,177.81
2024-03-12T00:25:59.945Z,177.75
2024-03-12T00:26:59.969Z,178.10
2024-03-12T00:28:00.192Z,178.38
2024-03-12T00:29:00.068Z,177.69
2024-03-12T00:30:00.154Z,178.96
2024-03-12T00:31:00.130Z,179.48
2024-03-12T00:32:00.178Z,178.26
2024-03-12T00:33:00.249Z,178.24
2024-03-12T00:34:00.463Z,178.42
2024-03-12T00:35:00.281Z,178.07
2024-03-12T00:36:00.324Z,178.37
2024-03-12T00:37:00.380Z,178.79
2024-03-12T00:38:00.406Z,178.46
2024-03-12T00:39:00.454Z,178.11
2024-03-12T00:40:00.509Z,179.00
2024-03-12T00:41:00.499Z,177.37
2024-03-12T00:42:00.535Z,177.84
2024-03-12T00:43:00.595Z,178.13
2024-03-12T00:44:00.633Z,177.94
2024-03-12T00:45:00.643Z,179.27
2024-03-12T00:46:00.674Z,177.74
2024-03-12T00:47:00.702Z,178.70
2024-03-12T00:48:00.827Z,178.28
2024-03-12T00:49:00.842Z,178.20
2024-03-12T00:50:00.818Z,179.32
2024-03-12T00:51:00.848Z,178.71
2024-03-12T00:52:00.916Z,178.51
2024-03-12T00:53:00.939Z,178.76
2024-03-12T00:54:00.965Z,177.98
2024-03-12T00:55:01.018Z,178.46
2024-03-12T00:56:01.041Z,178.06
2024-03-12T00:57:01.093Z,178.29
2024-03-12T00:58:01.152Z,177.80
2024-03-12T00:59:01.144Z,178.84
2024-03-12T01:00:01.216Z,178.76
2024-03-12T01:01:01.278Z,177.07
2024-03-12T01:02:01.325Z,178.42
2024-03-12T01:03:01.471Z,177.27
2024-03-12T01:04:01.448Z,176.51
2024-03-12T01:05:01.384Z,176.97
2024-03-12T01:06:01.400Z,178.07
2024-03-12T01:07:01.496Z,177.77
2024-03-12T01:08:01.645Z,177.92
2024-03-12T01:09:01.539Z,177.75
2024-03-12T01:10:01.722Z,178.64
2024-03-12T01:11:01.612Z,178.12
2024-03-12T01:12:01.649Z,177.29
2024-03-12T01:13:01.814Z,177.66
2024-03-12T01:14:01.691Z,177.83
2024-03-12T01:15:01.809Z,177.24
2024-03-12T01:16:01.768Z,177.95
2024-03-12T01:17:01.806Z,177.98
2024-03-12T01:18:01.865Z,177.41
2024-03-12T01:19:01.958Z,177.82
2024-03-12T01:20:01.954Z,177.97
2024-03-12T01:21:01.965Z,177.53
2024-03-12T01:22:02.051Z,177.32
2024-03-12T01:23:02.022Z,176.51
2024-03-12T01:24:02.059Z,177.73
2024-03-12T01:25:02.206Z,176.10
2024-03-12T01:26:02.131Z,178.04
2024-03-12T01:27:02.166Z,176.25
2024-03-12T01:28:02.392Z,177.41
2024-03-12T01:29:02.261Z,177.86
2024-03-12T01:30:02.330Z,177.67
2024-03-12T01:31:02.340Z,178.02
2024-03-12T01:32:02.501Z,178.09
2024-03-12T01:33:02.422Z,177.20
2024-03-12T01:34:02.541Z,178.24
2024-03-12T01:35:02.450Z,177.83
2024-03-12T01:36:02.478Z,178.11
2024-03-12T01:37:02.551Z,176.73
2024-03-12T01:38:02.552Z,177.55
2024-03-12T01:39:02.584Z,177.32
2024-03-12T01:40:02.733Z,177.22
2024-03-12T01:41:02.628Z,178.28
2024-03-12T01:42:02.704Z,177.44
2024-03-12T01:43:03.041Z,177.93
2024-03-12T01:44:02.754Z,176.68
2024-03-12T01:45:02.819Z,178.38
2024-03-12T01:46:02.885Z,177.07
2024-03-12T01:47:02.858Z,177.21
2024-03-12T01:48:02.943Z,177.57
2024-03-12T01:49:02.958Z,177.34
2024-03-12T01:50:02.945Z,178.10
2024-03-12T01:51:02.981Z,176.77
2024-03-12T01:52:03.144Z,177.52
2024-03-12T01:53:03.048Z,178.04
2024-03-12T01:54:03.085Z,176.99
2024-03-12T01:55:03.178Z,177.14
2024-03-12T01:56:03.185Z,177.07
2024-03-12T01:57:03.187Z,176.54
2024-03-12T01:58:03.489Z,176.88
2024-03-12T01:59:03.266Z,176.73
2024-03-12T02:00:03.272Z,177.05
2024-03-12T02:01:03.422Z,177.61
2024-03-12T02:02:03.358Z,177.03
2024-03-12T02:03:03.389Z,177.45
2024-03-12T02:04:03.554Z,177.45
2024-03-12T02:05:03.458Z,177.42
2024-03-12T02:06:03.476Z,176.24
2024-03-12T02:07:03.543Z,177.58
2024-03-12T02:08:03.518Z,177.22
2024-03-12T02:09:03.568Z,176.74
2024-03-12T02:10:03.698Z,177.15
2024-03-12T02:11:03.672Z,176.70
2024-03-12T02:12:03.664Z,176.86
2024-03-12T02:13:03.911Z,176.97
2024-03-12T02:14:03.743Z,177.12
2024-03-12T02:15:03.769Z,177.32
2024-03-12T02:16:03.829Z,176.67
2024-03-12T02:17:03.841Z,176.23
2024-03-12T02:18:04.009Z,176.73
2024-03-12T02:19:03.976Z,177.09
2024-03-12T02:20:03.986Z,176.94
2024-03-12T02:21:03.995Z,176.69
2024-03-12T02:22:04.073Z,176.16
2024-03-12T02:23:04.059Z,177.36
2024-03-12T02:24:04.094Z,176.51
2024-03-12T02:25:04.244Z,176.39
2024-03-12T02:26:04.173Z,176.90
2024-03-12T02:27:04.191Z,176.99
2024-03-12T02:28:04.641Z,177.10
2024-03-12T02:29:04.264Z,176.63
2024-03-12T02:30:04.360Z,176.71
2024-03-12T02:31:04.410Z,177.14
2024-03-12T02:32:04.396Z,176.85
2024-03-12T02:33:04.489Z,177.07
2024-03-12T02:34:04.459Z,176.77
2024-03-12T02:35:04.485Z,176.02
2024-03-12T02:36:04.518Z,175.76
2024-03-12T02:37:04.708Z,176.42
2024-03-12T02:38:04.590Z,176.24
2024-03-12T02:39:04.617Z,177.15
2024-03-12T02:40:04.760Z,175.89
2024-03-12T02:41:04.690Z,176.81
2024-03-12T02:42:04.736Z,177.30
2024-03-12T02:43:04.906Z,176.09
2024-03-12T02:44:04.844Z,176.73
2024-03-12T02:45:04.846Z,176.53
2024-03-12T02:46:05.115Z,176.66
2024-03-12T02:47:04.937Z,176.46
2024-03-12T02:48:04.999Z,176.95
2024-03-12T02:49:05.081Z,176.36
2024-03-12T02:50:05.019Z,175.29
2024-03-12T02:51:05.101Z,176.19
2024-03-12T02:52:05.168Z,176.19
2024-03-12T02:53:05.110Z,176.41
2024-03-12T02:54:05.152Z,177.12
2024-03-12T02:55:05.235Z,176.61
2024-03-12T02:56:05.228Z,176.14
2024-03-12T02:57:05.253Z,175.96
2024-03-12T02:58:05.369Z,176.42
2024-03-12T02:59:05.333Z,176.65
2024-03-12T03:00:05.336Z,176.40
2024-03-12T03:01:05.427Z,176.80
2024-03-12T03:02:05.418Z,176.38
2024-03-12T03:03:05.474Z,176.89
2024-03-12T03:04:05.608Z,175.24
2024-03-12T03:05:05.529Z,176.82
2024-03-12T03:06:05.539Z,174.82
2024-03-12T03:07:05.698Z,175.98
2024-03-12T03:08:05.625Z,176.15
2024-03-12T03:09:05.658Z,175.77
2024-03-12T03:10:05.967Z,176.00
2024-03-12T03:11:05.740Z,175.88
2024-03-12T03:12:05.785Z,175.80
2024-03-12T03:13:05.828Z,176.44
2024-03-12T03:14:05.859Z,175.67
2024-03-12T03:15:05.864Z,175.99
2024-03-12T03:16:05.961Z,176.23
2024-03-12T03:17:05.910Z,175.65
2024-03-12T03:18:05.996Z,175.23
2024-03-12T03:19:06.055Z,175.70
2024-03-12T03:20:06.023Z,175.77
2024-03-12T03:21:06.068Z,176.00
2024-03-12T03:22:06.162Z,175.77
2024-03-12T03:23:06.123Z,175.58
2024-03-12T03:24:06.174Z,175.80
2024-03-12T03:25:06.209Z,174.33
2024-03-12T03:26:06.213Z,176.12
2024-03-12T03:27:06.395Z,176.46
2024-03-12T03:28:06.338Z,175.26
2024-03-12T03:29:06.369Z,174.98
2024-03-12T03:30:06.361Z,175.41
2024-03-12T03:31:06.438Z,174.84
2024-03-12T03:32:06.442Z,175.32
2024-03-12T03:33:06.492Z,175.59
2024-03-12T03:34:06.624Z,175.47
2024-03-12T03:35:06.535Z,174.84
2024-03-12T03:36:06.561Z,175.25
2024-03-12T03:37:06.676Z,173.53
2024-03-12T03:38:06.626Z,175.34
2024-03-12T03:39:06.653Z,175.11
2024-03-12T03:40:06.722Z,175.77
2024-03-12T03:41:06.716Z,174.48
2024-03-12T03:42:06.737Z,175.54
2024-03-12T03:43:06.902Z,175.29
2024-03-12T03:44:06.819Z,175.56
2024-03-12T03:45:06.845Z,175.32
2024-03-12T03:46:06.962Z,175.62
2024-03-12T03:47:06.982Z,175.47
2024-03-12T03:48:06.962Z,174.93
2024-03-12T03:49:07.044Z,174.40
2024-03-12T03:50:06.984Z,174.90
2024-03-12T03:51:06.990Z,175.12
2024-03-12T03:52:07.085Z,173.89
2024-03-12T03:53:07.069Z,174.86
2024-03-12T03:54:07.096Z,175.48
2024-03-12T03:55:07.278Z,174.78
2024-03-12T03:56:07.165Z,174.59
2024-03-12T03:57:07.258Z,173.69
2024-03-12T03:58:07.285Z,175.14
2024-03-12T03:59:07.295Z,174.16
2024-03-12T04:00:07.318Z,174.72
2024-03-12T04:01:07.392Z,173.84
2024-03-12T04:02:07.361Z,174.34
2024-03-12T04:03:07.413Z,173.87
2024-03-12T04:04:07.524Z,174.79
2024-03-12T04:05:07.481Z,174.30
2024-03-12T04:06:07.538Z,175.62
2024-03-12T04:07:07.663Z,174.59
2024-03-12T04:08:07.708Z,173.20
2024-03-12T04:09:07.642Z,174.28
2024-03-12T04:10:07.708Z,173.63
2024-03-12T04:11:07.681Z,175.09
2024-03-12T04:12:07.725Z,175.29
2024-03-12T04:13:07.854Z,174.60
2024-03-12T04:14:07.788Z,174.37
2024-03-12T04:15:07.825Z,173.83
2024-03-12T04:16:07.943Z,174.60
2024-03-12T04:17:07.932Z,174.28
2024-03-12T04:18:07.987Z,173.98
2024-03-12T04:19:08.144Z,174.64
2024-03-12T04:20:07.972Z,173.37
2024-03-12T04:21:08.013Z,174.54
2024-03-12T04:22:08.265Z,174.63
2024-03-12T04:23:08.072Z,172.86
2024-03-12T04:24:08.100Z,173.89
2024-03-12T04:25:08.478Z,173.78
2024-03-12T04:26:08.192Z,174.16
2024-03-12T04:27:08.197Z,173.48
2024-03-12T04:28:08.329Z,173.16
2024-03-12T04:29:08.321Z,174.50
2024-03-12T04:30:08.309Z,173.65
2024-03-12T04:31:08.493Z,174.41
2024-03-12T04:32:08.381Z,173.58
2024-03-12T04:33:08.451Z,173.88
2024-03-12T04:34:08.489Z,174.73
2024-03-12T04:35:08.465Z,173.76
2024-03-12T04:36:08.490Z,173.58
2024-03-12T04:37:08.594Z,174.09
2024-03-12T04:38:08.582Z,174.20
2024-03-12T04:39:08.624Z,173.91
2024-03-12T04:40:15.980Z,50.00
2024-03-12T04:41:15.905Z,50.00
2024-03-12T04:42:15.901Z,50.00
2024-03-12T04:43:16.006Z,50.00
2024-03-12T04:44:15.899Z,50.00
2024-03-12T04:45:15.975Z,50.43
2024-03-12T04:46:15.935Z,51.03
2024-03-12T04:47:15.893Z,50.84
2024-03-12T04:48:15.953Z,50.82
2024-03-12T04:49:15.994Z,50.46
2024-03-12T04:50:16.142Z,50.00
2024-03-12T04:51:15.919Z,52.66
2024-03-12T04:52:15.903Z,52.13
2024-03-12T04:53:15.935Z,52.43
2024-03-12T04:54:15.925Z,52.91
2024-03-12T04:55:16.033Z,53.03
2024-03-12T04:56:15.920Z,53.72
2024-03-12T04:57:15.915Z,53.27
2024-03-12T04:58:15.946Z,54.70
2024-03-12T04:59:15.928Z,53.79
2024-03-12T05:00:16.785Z,54.34
2024-03-12T05:01:15.986Z,53.99
2024-03-12T05:02:15.919Z,53.36
2024-03-12T05:03:15.932Z,50.83
2024-03-12T05:04:21.527Z,53.74
2024-03-12T05:05:16.938Z,53.84
2024-03-12T05:06:15.974Z,53.98
2024-03-12T05:07:15.977Z,54.32
2024-03-12T05:08:15.961Z,54.21
2024-03-12T05:09:15.960Z,53.54
2024-03-12T05:10:16.024Z,52.73
2024-03-12T05:11:15.982Z,54.32
2024-03-12T05:12:15.957Z,53.75
2024-03-12T05:13:16.158Z,54.46
2024-03-12T05:14:15.981Z,52.02
2024-03-12T05:15:15.951Z,53.79
2024-03-12T05:16:15.987Z,52.99
2024-03-12T05:17:15.953Z,53.97
2024-03-12T05:18:16.076Z,53.23
2024-03-12T05:19:15.977Z,51.92
2024-03-12T05:20:16.031Z,54.11
2024-03-12T05:21:15.973Z,53.36
2024-03-12T05:22:16.065Z,52.85
2024-03-12T05:23:15.959Z,53.13
2024-03-12T05:24:15.986Z,52.45
2024-03-12T05:25:16.037Z,52.38
2024-03-12T05:26:15.965Z,53.02
2024-03-12T05:27:15.959Z,53.66
2024-03-12T05:28:16.006Z,52.81
2024-03-12T05:29:15.964Z,53.36
2024-03-12T05:30:16.296Z,52.31
2024-03-12T05:31:16.034Z,53.25
2024-03-12T05:32:15.978Z,52.82
2024-03-12T05:33:16.484Z,51.83
2024-03-12T05:34:16.051Z,52.74
2024-03-12T05:35:16.054Z,51.91
2024-03-12T05:36:16.076Z,52.53
2024-03-12T05:37:16.123Z,51.32
2024-03-12T05:38:16.097Z,53.44
2024-03-12T05:39:16.124Z,51.67
2024-03-12T05:40:16.253Z,52.64
2024-03-12T05:41:16.385Z,52.50
2024-03-12T05:42:16.209Z,51.75
2024-03-12T05:43:16.396Z,52.78
2024-03-12T05:44:16.246Z,52.49
2024-03-12T05:45:16.244Z,51.92
2024-03-12T05:46:16.556Z,52.29
2024-03-12T05:47:16.289Z,52.48
2024-03-12T05:48:16.312Z,52.22
2024-03-12T05:49:16.452Z,52.74
2024-03-12T05:50:16.363Z,52.44
2024-03-12T05:51:16.374Z,52.58
2024-03-12T05:52:16.497Z,52.09
2024-03-12T05:53:16.436Z,50.85
2024-03-12T05:54:16.442Z,51.71
2024-03-12T05:55:16.710Z,52.75
2024-03-12T05:56:18.736Z,51.30
2024-03-12T05:57:16.490Z,52.10
2024-03-12T05:58:16.544Z,53.36
2024-03-12T05:59:16.484Z,51.29
2024-03-12T06:00:16.477Z,53.17
2024-03-12T06:01:16.671Z,51.56
2024-03-12T06:02:16.524Z,53.50
2024-03-12T06:03:16.495Z,52.67
2024-03-12T06:04:16.640Z,52.82
2024-03-12T06:05:16.490Z,53.99
2024-03-12T06:06:16.479Z,53.79
2024-03-12T06:07:19.010Z,53.01
2024-03-12T06:08:16.480Z,53.12
2024-03-12T06:09:16.514Z,53.21
2024-03-12T06:10:16.621Z,53.20
2024-03-12T06:11:16.525Z,53.80
2024-03-12T06:12:16.657Z,54.26
2024-03-12T06:13:16.536Z,53.34
2024-03-12T06:14:16.538Z,52.95
2024-03-12T06:15:16.499Z,51.96
2024-03-12T06:16:16.550Z,53.68
2024-03-12T06:17:16.522Z,51.12
2024-03-12T06:18:16.492Z,52.67
2024-03-12T06:19:16.624Z,52.77
2024-03-12T06:20:16.479Z,53.53
2024-03-12T06:21:16.516Z,52.37
2024-03-12T06:22:16.530Z,52.06
2024-03-12T06:23:16.495Z,54.09
2024-03-12T06:24:16.515Z,54.13
2024-03-12T06:25:16.621Z,53.28
2024-03-12T06:26:16.493Z,52.90
2024-03-12T06:27:16.495Z,53.09
2024-03-12T06:28:16.569Z,54.05
2024-03-12T06:29:16.561Z,53.05
2024-03-12T06:30:16.513Z,54.65
2024-03-12T06:31:16.606Z,52.95
2024-03-12T06:32:16.523Z,53.19
2024-03-12T06:33:16.553Z,54.29
2024-03-12T06:34:16.563Z,54.97
2024-03-12T06:35:16.521Z,45.30
2024-03-12T06:36:16.505Z,28.35
2024-03-12T06:37:16.612Z,20.56
2024-03-12T06:38:16.505Z,17.35
2024-03-12T06:39:16.541Z,23.08
2024-03-12T06:40:16.564Z,37.19
2024-03-12T06:41:16.534Z,48.91
2024-03-12T06:42:16.681Z,51.49
2024-03-12T06:43:16.556Z,57.50
2024-03-12T06:44:17.459Z,64.46
2024-03-12T06:45:16.582Z,72.63
2024-03-12T06:46:16.704Z,80.88
2024-03-12T06:47:16.636Z,90.00
2024-03-12T06:48:16.706Z,98.73
2024-03-12T06:49:43.578Z,108.63
2024-03-12T06:50:16.662Z,108.94
2024-03-12T06:51:16.670Z,111.08
2024-03-12T06:52:16.736Z,116.56
2024-03-12T06:53:38.729Z,127.44
2024-03-12T06:54:16.673Z,109.55
2024-03-12T06:55:17.402Z,114.74
2024-03-12T06:56:16.680Z,125.21
2024-03-12T06:57:16.671Z,142.51
2024-03-12T06:58:16.697Z,167.46
2024-03-12T06:59:16.667Z,179.94
2024-03-12T07:00:16.679Z,187.12
2024-03-12T07:01:16.980Z,190.73
2024-03-12T07:02:16.740Z,196.73
2024-03-12T07:03:16.699Z,198.25
2024-03-12T07:04:16.697Z,199.48
2024-03-12T07:05:16.688Z,200.00
2024-03-12T07:06:16.692Z,199.87
2024-03-12T07:07:16.706Z,197.91
2024-03-12T07:08:16.678Z,199.35
2024-03-12T07:09:16.693Z,198.47
2024-03-12T07:10:16.738Z,198.69
2024-03-12T07:11:16.887Z,200.38
2024-03-12T07:12:16.677Z,197.98
2024-03-12T07:13:16.782Z,199.25
2024-03-12T07:14:16.688Z,198.18
2024-03-12T07:15:16.700Z,199.63
2024-03-12T07:16:16.743Z,200.43
2024-03-12T07:17:16.693Z,197.69
2024-03-12T07:18:16.749Z,200.00
2024-03-12T07:19:16.826Z,199.14
2024-03-12T07:20:16.923Z,199.89
2024-03-12T07:21:16.698Z,199.40
2024-03-12T07:22:16.693Z,199.65
2024-03-12T07:23:16.689Z,198.57
2024-03-12T07:24:16.721Z,199.39
2024-03-12T07:25:16.747Z,200.00
2024-03-12T07:26:16.708Z,200.00
2024-03-12T07:27:16.728Z,198.28
2024-03-12T07:28:17.445Z,199.16
2024-03-12T07:29:16.743Z,199.14
2024-03-12T07:30:16.776Z,199.73
2024-03-12T07:31:16.938Z,199.61
2024-03-12T07:32:16.899Z,199.79
2024-03-12T07:33:17.007Z,198.77
2024-03-12T07:34:18.705Z,199.31
2024-03-12T07:35:17.053Z,197.62
2024-03-12T07:36:17.088Z,199.48
2024-03-12T07:37:17.186Z,200.00
2024-03-12T07:38:17.187Z,200.00
2024-03-12T07:39:17.304Z,199.08
2024-03-12T07:40:17.902Z,199.67
2024-03-12T07:41:17.329Z,200.00
2024-03-12T07:42:17.360Z,198.38
2024-03-12T07:43:17.518Z,199.91
2024-03-12T07:44:17.524Z,199.51
2024-03-12T07:45:17.504Z,198.91
2024-03-12T07:46:17.599Z,199.17
2024-03-12T07:47:17.593Z,197.97
2024-03-12T07:48:17.702Z,200.00
2024-03-12T07:49:17.773Z,199.86
2024-03-12T07:50:17.739Z,199.82
2024-03-12T07:51:17.756Z,199.79
2024-03-12T07:52:17.942Z,199.67
2024-03-12T07:53:17.866Z,198.16
2024-03-12T07:54:17.927Z,199.72
2024-03-12T07:55:18.021Z,198.74
2024-03-12T07:56:18.020Z,198.52
2024-03-12T07:57:20.053Z,198.88
2024-03-12T07:58:18.120Z,198.88
2024-03-12T07:59:18.144Z,197.50
2024-03-12T08:00:18.498Z,198.43
2024-03-12T08:01:18.148Z,197.71
2024-03-12T08:02:18.094Z,197.17
2024-03-12T08:03:18.112Z,197.57
2024-03-12T08:04:18.191Z,196.35
2024-03-12T08:05:18.149Z,196.95
2024-03-12T08:06:18.101Z,195.73
2024-03-12T08:07:18.151Z,195.78
2024-03-12T08:08:18.106Z,195.59
2024-03-12T08:09:18.171Z,194.34
2024-03-12T08:10:18.205Z,194.95
2024-03-12T08:11:18.124Z,194.60
2024-03-12T08:12:18.161Z,193.82
2024-03-12T08:13:18.149Z,194.40
2024-03-12T08:14:18.196Z,194.51
2024-03-12T08:15:18.120Z,192.67
2024-03-12T08:16:18.149Z,192.72
2024-03-12T08:17:18.133Z,192.08
2024-03-12T08:18:21.636Z,191.89
2024-03-12T08:19:18.335Z,191.97
2024-03-12T08:20:18.153Z,192.05
2024-03-12T08:21:18.112Z,191.55
2024-03-12T08:22:18.121Z,192.05
2024-03-12T08:23:18.107Z,190.69
2024-03-12T08:24:18.110Z,190.47
2024-03-12T08:25:21.443Z,191.82
2024-03-12T08:26:18.118Z,191.83
2024-03-12T08:27:18.109Z,192.14
2024-03-12T08:28:18.191Z,193.18
2024-03-12T08:29:18.135Z,195.27
2024-03-12T08:30:18.158Z,198.73
2024-03-12T08:31:28.247Z,199.75
2024-03-12T08:32:19.199Z,199.93
2024-03-12T08:33:18.169Z,200.65
2024-03-12T08:34:18.241Z,201.70
2024-03-12T08:35:18.142Z,203.65
2024-03-12T08:36:18.140Z,205.32
2024-03-12T08:37:18.190Z,199.14
2024-03-12T08:38:18.138Z,199.45
2024-03-12T08:39:18.261Z,197.76
2024-03-12T08:40:18.366Z,197.37
2024-03-12T08:41:18.149Z,196.81
2024-03-12T08:42:18.149Z,198.11
2024-03-12T08:43:18.170Z,197.91
2024-03-12T08:44:18.136Z,197.15
2024-03-12T08:45:21.281Z,196.93
2024-03-12T08:46:18.213Z,196.96
2024-03-12T08:47:18.177Z,195.45
2024-03-12T08:48:18.184Z,195.27
2024-03-12T08:49:18.301Z,192.68
2024-03-12T08:50:18.334Z,192.54
2024-03-12T08:51:18.184Z,194.89
2024-03-12T08:52:18.275Z,193.57
2024-03-12T08:53:18.204Z,193.31
2024-03-12T08:54:18.202Z,193.43
2024-03-12T08:55:18.302Z,194.97
2024-03-12T08:56:18.253Z,193.55
2024-03-12T08:57:18.300Z,193.95
2024-03-12T08:58:18.505Z,196.32
2024-03-12T08:59:18.448Z,197.70
2024-03-12T09:00:18.454Z,199.14
2024-03-12T09:01:18.581Z,198.93
2024-03-12T09:02:18.556Z,199.25
2024-03-12T09:03:18.689Z,199.50
2024-03-12T09:04:18.652Z,199.84
2024-03-12T09:05:18.617Z,199.50
2024-03-12T09:06:18.679Z,199.79
2024-03-12T09:07:18.699Z,198.98
2024-03-12T09:08:18.777Z,199.71
2024-03-12T09:09:18.712Z,200.00
2024-03-12T09:10:18.806Z,198.48
2024-03-12T09:11:18.793Z,199.85
2024-03-12T09:12:18.776Z,199.49
2024-03-12T09:13:18.837Z,198.76
2024-03-12T09:14:18.811Z,200.00
2024-03-12T09:15:18.825Z,200.00
2024-03-12T09:16:19.015Z,199.25
2024-03-12T09:17:18.884Z,198.89
2024-03-12T09:18:19.597Z,199.29
2024-03-12T09:19:19.018Z,200.00
2024-03-12T09:20:18.913Z,199.17
2024-03-12T09:21:18.918Z,199.60
2024-03-12T09:22:18.958Z,199.97
2024-03-12T09:23:18.951Z,199.45
2024-03-12T09:24:19.008Z,199.43
2024-03-12T09:25:19.751Z,199.20
2024-03-12T09:26:18.985Z,200.00
2024-03-12T09:27:19.013Z,199.64
2024-03-12T09:28:19.141Z,199.22
2024-03-12T09:29:19.045Z,200.00
2024-03-12T09:30:19.072Z,199.61
2024-03-12T09:31:19.155Z,199.68
2024-03-12T09:32:19.087Z,199.30
2024-03-12T09:33:19.070Z,199.49
2024-03-12T09:34:19.189Z,199.50
2024-03-12T09:35:19.085Z,198.74
2024-03-12T09:36:19.080Z,199.21
2024-03-12T09:37:19.238Z,199.25
2024-03-12T09:38:19.096Z,192.81
2024-03-12T09:39:19.201Z,167.42
2024-03-12T09:40:19.266Z,148.55
2024-03-12T09:41:19.260Z,134.27
2024-03-12T09:42:19.288Z,124.83
2024-03-12T09:43:19.333Z,117.50
2024-03-12T09:44:19.362Z,114.40
2024-03-12T09:45:19.327Z,113.95
2024-03-12T09:46:19.358Z,112.79
2024-03-12T09:47:19.361Z,112.36
2024-03-12T09:48:19.388Z,111.99
2024-03-12T09:49:19.527Z,115.36
2024-03-12T09:50:19.475Z,115.67
2024-03-12T09:51:19.523Z,112.78
2024-03-12T09:52:19.595Z,104.48
2024-03-12T09:53:19.602Z,96.77
2024-03-12T09:54:19.652Z,91.53
2024-03-12T09:55:19.692Z,88.68
2024-03-12T09:56:19.682Z,90.66
2024-03-12T09:57:19.721Z,91.65
2024-03-12T09:58:19.833Z,95.74
2024-03-12T09:59:19.788Z,98.63
2024-03-12T10:00:19.860Z,102.39
2024-03-12T10:01:19.949Z,103.88
2024-03-12T10:02:20.018Z,106.04
2024-03-12T10:03:20.040Z,108.18
2024-03-12T10:04:20.156Z,110.67
2024-03-12T10:05:20.169Z,109.34
2024-03-12T10:06:20.179Z,103.41
2024-03-12T10:07:20.271Z,96.37
2024-03-12T10:08:20.336Z,88.92
2024-03-12T10:09:20.388Z,90.16
2024-03-12T10:10:20.529Z,92.68
2024-03-12T10:11:20.592Z,95.65
2024-03-12T10:12:20.542Z,101.21
2024-03-12T10:13:20.635Z,104.02
2024-03-12T10:14:20.628Z,103.28
2024-03-12T10:15:20.744Z,104.46
2024-03-12T10:16:20.780Z,106.63
2024-03-12T10:17:20.759Z,108.62
2024-03-12T10:18:20.776Z,109.82
2024-03-12T10:19:20.872Z,111.91
2024-03-12T10:20:20.890Z,112.14
2024-03-12T10:21:20.870Z,113.05
2024-03-12T10:22:20.947Z,112.63
2024-03-12T10:23:20.911Z,115.06
2024-03-12T10:24:20.943Z,115.90
2024-03-12T10:25:21.002Z,116.29
2024-03-12T10:26:20.985Z,116.98
2024-03-12T10:27:21.010Z,116.81
2024-03-12T10:28:21.048Z,118.22
2024-03-12T10:29:21.077Z,105.89
2024-03-12T10:30:21.127Z,91.55
2024-03-12T10:31:21.316Z,79.03
2024-03-12T10:32:21.193Z,68.60
2024-03-12T10:33:21.223Z,60.42
2024-03-12T10:34:21.739Z,56.65
2024-03-12T10:35:21.311Z,53.79
2024-03-12T10:36:21.272Z,52.52
2024-03-12T10:37:21.423Z,50.46
2024-03-12T10:38:21.309Z,50.77
2024-03-12T10:39:21.315Z,50.00
2024-03-12T10:40:21.754Z,50.86
2024-03-12T10:41:22.765Z,50.54
2024-03-12T10:42:21.345Z,50.79
2024-03-12T10:43:21.398Z,50.34
2024-03-12T10:44:21.409Z,50.59
2024-03-12T10:45:21.481Z,50.58
2024-03-12T10:46:21.519Z,51.91
2024-03-12T10:47:21.562Z,51.55
2024-03-12T10:48:21.686Z,50.94
2024-03-12T10:49:22.195Z,51.18
2024-03-12T10:50:21.682Z,51.71
2024-03-12T10:51:21.694Z,51.75
2024-03-12T10:52:21.852Z,51.02
2024-03-12T10:53:21.797Z,50.78
2024-03-12T10:54:21.822Z,50.39
2024-03-12T10:55:21.874Z,51.70
2024-03-12T10:56:21.907Z,50.41
2024-03-12T10:57:21.868Z,50.00
2024-03-12T10:58:21.931Z,50.00
2024-03-12T10:59:21.904Z,50.16
2024-03-12T11:00:21.904Z,50.00
2024-03-12T11:01:22.278Z,50.64
2024-03-12T11:02:21.918Z,50.89
2024-03-12T11:03:21.922Z,51.32
2024-03-12T11:04:21.975Z,50.47
2024-03-12T11:05:21.951Z,51.13
2024-03-12T11:06:21.957Z,50.36
2024-03-12T11:07:21.978Z,49.58
2024-03-12T11:08:21.960Z,51.54
2024-03-12T11:09:21.955Z,50.54
2024-03-12T11:10:22.102Z,51.27
2024-03-12T11:11:22.061Z,52.02
2024-03-12T11:12:22.008Z,50.37
2024-03-12T11:13:22.133Z,51.36
2024-03-12T11:14:22.022Z,50.77
2024-03-12T11:15:22.031Z,50.99
2024-03-12T11:16:22.263Z,50.10
2024-03-12T11:17:22.067Z,50.84
2024-03-12T11:18:22.074Z,50.26
2024-03-12T11:19:22.404Z,51.04
2024-03-12T11:20:24.777Z,50.06
2024-03-12T11:21:22.056Z,50.07
2024-03-12T11:22:22.113Z,49.47
2024-03-12T11:23:22.078Z,48.56
2024-03-12T11:24:22.095Z,48.91
2024-03-12T11:25:22.131Z,47.93
2024-03-12T11:26:35.461Z,50.76
2024-03-12T11:27:23.092Z,50.77
2024-03-12T11:28:22.561Z,50.84
2024-03-12T11:29:22.071Z,51.06
2024-03-12T11:30:22.089Z,51.36
2024-03-12T11:31:22.099Z,51.25
2024-03-12T11:32:22.077Z,50.80
2024-03-12T11:33:22.092Z,52.25
2024-03-12T11:34:22.086Z,50.83
2024-03-12T11:35:22.116Z,51.48
2024-03-12T11:36:22.077Z,51.05
2024-03-12T11:37:22.117Z,51.02
2024-03-12T11:38:22.095Z,51.04
2024-03-12T11:39:22.082Z,51.23
2024-03-12T11:40:22.178Z,51.65
2024-03-12T11:41:22.087Z,50.93
2024-03-12T11:42:22.084Z,51.15
2024-03-12T11:43:22.082Z,50.75
2024-03-12T11:44:22.098Z,50.17
2024-03-12T11:45:22.094Z,50.33
2024-03-12T11:46:22.395Z,50.00
2024-03-12T11:47:22.101Z,51.40
2024-03-12T11:48:22.093Z,51.08
2024-03-12T11:49:22.098Z,51.61
2024-03-12T11:50:22.106Z,51.24
2024-03-12T11:51:22.100Z,51.76
2024-03-12T11:52:22.125Z,50.52
2024-03-12T11:53:22.122Z,51.44
2024-03-12T11:54:22.121Z,52.01
2024-03-12T11:55:22.121Z,51.67
2024-03-12T11:56:22.099Z,53.71
2024-03-12T11:57:22.125Z,52.40
2024-03-12T11:58:22.116Z,50.24
2024-03-12T11:59:22.126Z,51.01
2024-03-12T12:00:22.144Z,51.35
2024-03-12T12:01:22.147Z,51.48
2024-03-12T12:02:22.154Z,51.12
2024-03-12T12:03:22.126Z,50.56
2024-03-12T12:04:22.138Z,50.61
2024-03-12T12:05:22.132Z,50.09
2024-03-12T12:06:22.117Z,51.39
2024-03-12T12:07:22.176Z,51.23
2024-03-12T12:08:22.125Z,50.96
2024-03-12T12:09:22.138Z,51.51
2024-03-12T12:10:22.164Z,52.51
2024-03-12T12:11:22.200Z,52.33
2024-03-12T12:12:22.149Z,52.32
2024-03-12T12:13:22.143Z,51.07
2024-03-12T12:14:22.136Z,52.19
2024-03-12T12:15:22.139Z,52.35
2024-03-12T12:16:22.225Z,52.96
2024-03-12T12:17:22.130Z,53.09
2024-03-12T12:18:22.135Z,52.40
2024-03-12T12:19:25.731Z,52.70
2024-03-12T12:20:23.185Z,52.72
2024-03-12T12:21:22.209Z,52.72
2024-03-12T12:22:22.186Z,52.76
2024-03-12T12:23:22.166Z,52.22
2024-03-12T12:24:22.193Z,52.61
2024-03-12T12:25:22.344Z,52.13
2024-03-12T12:26:22.157Z,51.57
2024-03-12T12:27:22.149Z,50.98
2024-03-12T12:28:22.199Z,50.09
2024-03-12T12:29:22.161Z,50.78
2024-03-12T12:30:22.365Z,51.05
2024-03-12T12:31:22.159Z,50.14
2024-03-12T12:32:22.150Z,50.43
2024-03-12T12:33:22.171Z,50.71
2024-03-12T12:34:22.191Z,51.14
2024-03-12T12:35:22.355Z,52.22
2024-03-12T12:36:22.182Z,50.69
2024-03-12T12:37:22.599Z,51.44